createdAt,value
2019-03-13T00:04:27.051Z,2.10
2019-03-13T00:09:32.388Z,77.27
2019-03-13T00:14:35.971Z,7.23
2019-03-13T00:19:39.998Z,2.80
2019-03-13T00:24:43.740Z,1.60
2019-03-13T00:29:47.374Z,1.77
2019-03-13T00:34:52.022Z,1.47
2019-03-13T00:39:55.994Z,1.30
2019-03-13T00:44:59.635Z,1.20
2019-03-13T00:50:03.020Z,1.30
2019-03-13T00:55:06.666Z,1.30
2019-03-13T01:00:12.401Z,1.13
2019-03-13T01:05:30.059Z,1.07
2019-03-13T01:10:33.684Z,1.00
2019-03-13T01:15:37.318Z,1.10
2019-03-13T01:20:41.076Z,1.10
2019-03-13T01:25:44.634Z,1.00
2019-03-13T01:31:06.029Z,0.80
2019-03-13T01:36:09.795Z,1.00
2019-03-13T01:41:13.511Z,0.90
2019-03-13T01:46:17.328Z,0.90
2019-03-13T01:51:20.835Z,0.90
2019-03-13T01:56:24.772Z,0.80
2019-03-13T02:01:43.457Z,58.13
2019-03-13T02:06:47.027Z,15.13
2019-03-13T02:11:50.778Z,1.33
2019-03-13T02:16:54.485Z,1.40
2019-03-13T02:21:58.034Z,1.30
2019-03-13T02:27:01.603Z,1.30
2019-03-13T02:32:05.325Z,1.30
2019-03-13T02:37:08.899Z,1.20
2019-03-13T02:42:12.419Z,1.20
2019-03-13T02:47:19.089Z,1.10
2019-03-13T02:57:24.924Z,1.10
2019-03-13T03:02:32.757Z,1.07
2019-03-13T03:07:36.375Z,1.50
2019-03-13T03:12:39.887Z,1.30
2019-03-13T03:17:43.716Z,1.40
2019-03-13T03:22:48.462Z,1.27
2019-03-13T03:27:52.030Z,1.30
2019-03-13T03:32:55.682Z,1.50
2019-03-13T03:37:59.294Z,1.40
2019-03-13T03:43:02.811Z,1.50
2019-03-13T03:48:06.408Z,1.50
2019-03-13T03:53:10.093Z,2.00
2019-03-13T03:58:13.652Z,1.60
2019-03-13T04:03:17.321Z,1.90
2019-03-13T04:08:20.930Z,2.03
2019-03-13T04:13:24.706Z,1.73
2019-03-13T04:18:28.320Z,1.70
2019-03-13T04:23:32.949Z,1.60
2019-03-13T04:28:36.659Z,2.10
2019-03-13T04:33:40.305Z,1.57
2019-03-13T04:38:43.805Z,1.60
2019-03-13T04:43:47.846Z,1.40
2019-03-13T04:48:51.653Z,1.60
2019-03-13T04:53:55.286Z,1.60
2019-03-13T04:58:58.782Z,1.60
2019-03-13T05:04:02.423Z,1.50
2019-03-13T05:09:05.984Z,1.53
2019-03-13T05:14:09.637Z,1.33
2019-03-13T05:19:13.278Z,1.60
2019-03-13T05:24:16.752Z,1.77
2019-03-13T05:29:20.379Z,1.43
2019-03-13T05:34:23.962Z,1.20
2019-03-13T05:39:27.634Z,1.60
2019-03-13T05:44:31.772Z,1.25
2019-03-13T05:49:35.452Z,1.50
2019-03-13T05:59:42.475Z,1.40
2019-03-13T06:04:46.318Z,1.30
2019-03-13T06:09:49.812Z,1.20
2019-03-13T06:14:53.732Z,1.23
2019-03-13T06:19:57.315Z,1.20
2019-03-13T06:25:00.758Z,1.40
2019-03-13T06:30:04.475Z,1.20
2019-03-13T06:35:08.317Z,1.20
2019-03-13T06:45:15.630Z,1.47
2019-03-13T06:50:19.382Z,1.30
2019-03-13T06:55:22.858Z,1.30
2019-03-13T07:00:26.369Z,1.50
2019-03-13T07:05:34.603Z,1.47
2019-03-13T07:10:40.249Z,1.60
2019-03-13T07:15:45.417Z,1.82
2019-03-13T07:20:56.716Z,1.50
2019-03-13T07:26:14.669Z,1.70
2019-03-13T07:31:26.786Z,1.47
2019-03-13T07:36:34.972Z,1.27
2019-03-13T07:41:40.283Z,1.23
2019-03-13T07:46:45.442Z,1.20
2019-03-13T07:51:57.697Z,1.30
2019-03-13T07:57:11.676Z,1.27
2019-03-13T08:02:41.404Z,1.10
2019-03-13T08:07:53.010Z,0.80
2019-03-13T08:12:59.503Z,1.00
2019-03-13T08:23:32.970Z,5.10
2019-03-13T08:28:38.420Z,7.33
2019-03-13T08:33:44.800Z,49.07
2019-03-13T08:39:06.740Z,277.37
2019-03-13T08:44:17.911Z,238.53
2019-03-13T08:49:32.084Z,25.93
2019-03-13T08:54:37.327Z,1.70
2019-03-13T08:59:59.016Z,1.70
2019-03-13T09:05:05.070Z,1.20
2019-03-13T09:10:08.449Z,0.90
2019-03-13T09:15:28.812Z,1.20
2019-03-13T09:20:38.038Z,1.10
2019-03-13T09:25:43.749Z,1.00
2019-03-13T09:41:17.760Z,1.47
2019-03-13T09:46:21.279Z,1.00
2019-03-13T09:51:30.733Z,1.43
2019-03-13T10:01:47.791Z,1.20
2019-03-13T10:06:59.019Z,1.30
2019-03-13T10:12:04.266Z,1.10
2019-03-13T10:17:12.048Z,1.20
2019-03-13T10:22:15.473Z,1.20
2019-03-13T10:27:34.058Z,1.20
2019-03-13T10:32:42.274Z,1.20
2019-03-13T10:37:51.396Z,1.20
2019-03-13T10:43:07.345Z,1.20
2019-03-13T10:48:18.503Z,1.30
2019-03-13T10:58:36.013Z,1.30
2019-03-13T11:03:53.514Z,1.27
2019-03-13T11:09:12.388Z,1.20
2019-03-13T11:14:18.345Z,1.47
2019-03-13T11:19:23.498Z,1.70
2019-03-13T11:29:51.912Z,1.43
2019-03-13T11:34:55.272Z,1.30
2019-03-13T11:40:16.569Z,1.13
2019-03-13T11:45:22.638Z,1.60
2019-03-13T11:50:27.793Z,1.17
2019-03-13T11:55:36.142Z,1.03
2019-03-13T12:00:44.551Z,1.00
2019-03-13T12:05:47.596Z,1.40
2019-03-13T12:11:08.784Z,1.13
2019-03-13T12:16:13.999Z,1.10
2019-03-13T12:21:38.439Z,1.00
2019-03-13T12:26:55.709Z,1.20
2019-03-13T12:32:19.360Z,0.90
2019-03-13T12:37:26.072Z,1.10
2019-03-13T12:42:47.579Z,1.07
2019-03-13T12:47:50.792Z,33.17
2019-03-13T12:58:16.739Z,1.10
2019-03-13T13:03:34.406Z,18.00
2019-03-13T13:08:45.617Z,13.43
2019-03-13T13:13:49.413Z,43.57
2019-03-13T13:18:55.978Z,2.50
2019-03-13T13:23:59.634Z,2.23
2019-03-13T13:29:03.351Z,1.40
2019-03-13T13:34:07.389Z,1.20
2019-03-13T13:39:10.867Z,1.23
2019-03-13T13:44:14.689Z,1.33
2019-03-13T13:49:18.308Z,1.40
2019-03-13T13:54:21.823Z,1.13
2019-03-13T13:59:25.839Z,105.70
2019-03-13T14:04:43.708Z,57.55
2019-03-13T14:09:47.422Z,93.00
2019-03-13T14:14:51.127Z,803.17
2019-03-13T14:19:54.733Z,603.50
2019-03-13T14:24:58.466Z,436.87
2019-03-13T14:35:05.841Z,105.03
2019-03-13T14:40:09.826Z,140.70
2019-03-13T14:45:13.739Z,94.93
2019-03-13T14:50:17.387Z,53.83
2019-03-13T14:55:21.004Z,9.20
2019-03-13T15:00:24.796Z,26.63
2019-03-13T15:05:28.486Z,85.63
2019-03-13T15:15:36.355Z,39.30
2019-03-13T15:20:40.021Z,22.90
2019-03-13T15:25:43.598Z,9.43
2019-03-13T15:30:47.774Z,5.33
2019-03-13T15:35:51.757Z,6.87
2019-03-13T15:40:58.033Z,164.10
2019-03-13T15:46:01.748Z,50.40
2019-03-13T15:51:05.388Z,43.47
2019-03-13T15:56:09.861Z,250.73
2019-03-13T16:01:13.839Z,169.23
2019-03-13T16:06:18.121Z,22.63
2019-03-13T16:11:22.703Z,81.97
2019-03-13T16:16:27.286Z,13.77
2019-03-13T16:21:30.775Z,23.83
2019-03-13T16:26:34.349Z,13.27
2019-03-13T16:31:39.098Z,2.90
2019-03-13T16:36:44.106Z,62.50
2019-03-13T16:41:50.412Z,82.12
2019-03-13T16:47:00.368Z,97.20
2019-03-13T16:52:05.571Z,115.13
2019-03-13T16:57:13.526Z,106.67
2019-03-13T17:07:22.728Z,91.73
2019-03-13T17:12:26.445Z,8.37
2019-03-13T17:17:30.047Z,2.90
2019-03-13T17:22:33.681Z,2.10
2019-03-13T17:27:37.292Z,2.87
2019-03-13T17:32:40.810Z,4.23
2019-03-13T17:37:44.427Z,6.05
2019-03-13T17:42:48.805Z,6.83
2019-03-13T17:47:53.548Z,10.80
2019-03-13T17:52:57.275Z,16.85
2019-03-13T17:58:00.725Z,9.77
2019-03-13T18:08:07.862Z,38.47
2019-03-13T18:13:11.592Z,183.50
2019-03-13T18:18:15.525Z,137.93
2019-03-13T18:23:19.515Z,68.90
2019-03-13T18:33:29.271Z,21.83
2019-03-13T18:38:32.879Z,10.20
2019-03-13T18:43:36.862Z,94.13
2019-03-13T18:48:41.192Z,52.17
2019-03-13T18:53:44.700Z,171.13
2019-03-13T18:58:51.745Z,161.33
2019-03-13T19:03:55.506Z,104.13
2019-03-13T19:08:59.172Z,108.87
2019-03-13T19:14:02.738Z,110.33
2019-03-13T19:24:12.420Z,153.57
2019-03-13T19:29:16.147Z,55.70
2019-03-13T19:34:19.759Z,64.57
2019-03-13T19:39:23.594Z,63.43
2019-03-13T19:44:27.562Z,50.73
2019-03-13T19:54:35.021Z,41.73
2019-03-13T19:59:40.625Z,30.83
2019-03-13T20:04:47.497Z,22.93
2019-03-13T20:10:06.473Z,98.23
2019-03-13T20:20:13.610Z,158.13
2019-03-13T20:25:17.803Z,39.83
2019-03-13T20:30:21.967Z,39.47
2019-03-13T20:35:25.607Z,24.33
2019-03-13T20:40:29.500Z,29.33
2019-03-13T20:50:38.400Z,16.50
2019-03-13T20:55:42.033Z,8.07
2019-03-13T21:00:45.594Z,8.33
2019-03-13T21:05:49.520Z,6.93
2019-03-13T21:15:56.643Z,6.13
2019-03-13T21:21:00.333Z,21.47
2019-03-13T21:26:05.034Z,10.37
2019-03-13T21:31:09.497Z,9.08
2019-03-13T21:41:16.671Z,8.03
2019-03-13T21:46:20.294Z,20.90
2019-03-13T21:51:23.812Z,32.03
2019-03-13T21:56:28.074Z,15.53
2019-03-13T22:01:33.010Z,6.17
2019-03-13T22:06:36.601Z,27.77
2019-03-13T22:11:40.335Z,21.47
2019-03-13T22:16:43.828Z,16.87
2019-03-13T22:21:48.146Z,218.03
2019-03-13T22:26:51.777Z,26.33
2019-03-13T22:31:55.491Z,293.50
2019-03-13T22:42:02.626Z,181.37
2019-03-13T22:47:06.387Z,103.00
2019-03-13T22:52:09.853Z,31.33
2019-03-13T22:57:13.471Z,11.77
2019-03-13T23:07:20.703Z,4.27
2019-03-13T23:12:24.308Z,3.77
2019-03-13T23:17:27.821Z,3.20
2019-03-13T23:22:31.544Z,3.23
2019-03-13T23:32:38.672Z,3.60
2019-03-13T23:37:42.304Z,2.63
2019-03-13T23:42:45.832Z,2.10
2019-03-13T23:47:49.720Z,2.00
2019-03-13T23:52:53.337Z,1.80
2019-03-13T23:57:56.850Z,2.00
